Time;durP1;ratioP1;P1;durP2;ratioP2;P2;SDS_P1;SDS_P2;PMS_P1;PMS_P2;Temp;Humidity;BMP_temperature;BMP_pressure;BME280_temperature;BME280_humidity;BME280_pressure;Samples;Min_cycle;Max_cycle;Signal;HPM_P1;HPM_P2
2022/11/27 00:00:04;;;;;;;6.47;4.37;;;;;;;;;;5074510;28;20444;-42
2022/11/27 00:02:30;;;;;;;6.20;3.92;;;;;;;;;;5074248;28;20435;-42
2022/11/27 00:04:56;;;;;;;7.73;4.63;;;;;;;;;;5074696;28;20162;-42
2022/11/27 00:07:22;;;;;;;8.50;4.77;;;;;;;;;;5074541;28;20431;-43
2022/11/27 00:09:48;;;;;;;13.20;4.80;;;;;;;;;;5073170;28;20398;-42
2022/11/27 00:12:14;;;;;;;11.73;5.47;;;;;;;;;;5074251;28;20202;-43
2022/11/27 00:14:40;;;;;;;13.40;4.17;;;;;;;;;;5074284;28;20458;-44
2022/11/27 00:17:06;;;;;;;9.10;5.17;;;;;;;;;;5074250;28;20798;-42
2022/11/27 00:19:31;;;;;;;12.38;4.75;;;;;;;;;;5074189;28;20428;-42
2022/11/27 00:21:57;;;;;;;6.70;4.93;;;;;;;;;;5072546;28;20717;-42
2022/11/27 00:24:23;;;;;;;9.63;4.73;;;;;;;;;;5074208;28;20811;-42
2022/11/27 00:26:49;;;;;;;15.50;4.70;;;;;;;;;;5074201;28;20874;-42
2022/11/27 00:29:15;;;;;;;8.50;4.53;;;;;;;;;;5073984;28;20742;-42
2022/11/27 00:31:41;;;;;;;7.67;4.30;;;;;;;;;;5073600;28;20511;-42
2022/11/27 00:34:08;;;;;;;7.10;5.40;;;;;;;;;;5073584;28;20405;-42
2022/11/27 00:36:34;;;;;;;9.43;5.00;;;;;;;;;;5073809;28;20425;-42
2022/11/27 00:39:00;;;;;;;6.03;5.07;;;;;;;;;;5073634;28;20175;-42
2022/11/27 00:41:28;;;;;;;7.20;4.65;;;;;;;;;;5073454;28;20202;-43
2022/11/27 00:43:54;;;;;;;5.65;4.90;;;;;;;;;;5072274;28;20178;-42
2022/11/27 00:46:23;;;;;;;7.10;4.87;;;;;;;;;;5073703;28;20216;-43
2022/11/27 00:48:49;;;;;;;5.22;4.50;;;;;;;;;;5074253;28;20415;-41
2022/11/27 00:51:16;;;;;;;4.72;4.03;;;;;;;;;;5072620;28;20663;-41
2022/11/27 00:53:42;;;;;;;12.02;5.88;;;;;;;;;;5073227;28;20184;-42
2022/11/27 00:56:09;;;;;;;6.73;4.60;;;;;;;;;;5073535;28;20163;-43
2022/11/27 00:58:35;;;;;;;7.32;4.95;;;;;;;;;;5073565;28;20411;-41
2022/11/27 01:01:03;;;;;;;9.37;5.00;;;;;;;;;;5071930;28;20210;-42
2022/11/27 01:03:29;;;;;;;4.82;4.35;;;;;;;;;;5073497;28;20415;-42
2022/11/27 01:05:55;;;;;;;8.40;5.40;;;;;;;;;;5073506;28;20170;-42
2022/11/27 01:08:22;;;;;;;6.20;4.43;;;;;;;;;;5073617;28;20166;-43
2022/11/27 01:10:49;;;;;;;5.65;5.10;;;;;;;;;;5071735;28;20432;-42
2022/11/27 01:13:15;;;;;;;8.60;5.00;;;;;;;;;;5073166;28;20205;-41
2022/11/27 01:15:41;;;;;;;4.67;4.27;;;;;;;;;;5073298;28;20213;-42
2022/11/27 01:18:07;;;;;;;8.30;4.70;;;;;;;;;;5073046;28;20438;-42
2022/11/27 01:20:32;;;;;;;4.83;4.43;;;;;;;;;;5073053;28;20440;-42
2022/11/27 01:22:58;;;;;;;6.33;5.10;;;;;;;;;;5072960;28;20451;-42
2022/11/27 01:25:24;;;;;;;7.27;5.13;;;;;;;;;;5073142;28;20901;-41
2022/11/27 01:27:50;;;;;;;4.87;4.37;;;;;;;;;;5071524;28;20843;-41
2022/11/27 01:30:16;;;;;;;7.57;5.40;;;;;;;;;;5073006;28;20845;-41
2022/11/27 01:32:42;;;;;;;5.00;4.50;;;;;;;;;;5072543;28;20768;-41
2022/11/27 01:35:08;;;;;;;6.83;4.80;;;;;;;;;;5072949;28;20428;-42
2022/11/27 01:37:34;;;;;;;7.63;4.50;;;;;;;;;;5072834;28;20819;-41
2022/11/27 01:40:00;;;;;;;7.70;4.20;;;;;;;;;;5072758;28;20190;-42
2022/11/27 01:42:26;;;;;;;6.50;5.67;;;;;;;;;;5072184;28;20429;-42
2022/11/27 01:44:53;;;;;;;6.47;4.47;;;;;;;;;;5072100;28;20733;-41
2022/11/27 01:47:34;;;;;;;8.52;4.93;;;;;;;;;;5072677;28;20393;-41
2022/11/27 01:50:06;;;;;;;6.00;4.47;;;;;;;;;;5072662;28;20233;-41
2022/11/27 01:52:34;;;;;;;5.50;4.70;;;;;;;;;;5072428;28;20797;-41
2022/11/27 01:55:03;;;;;;;7.57;4.85;;;;;;;;;;5072372;28;20174;-41
2022/11/27 01:57:34;;;;;;;6.97;4.65;;;;;;;;;;5072344;28;20647;-41
2022/11/27 02:00:01;;;;;;;6.25;4.88;;;;;;;;;;5072369;28;20200;-41
2022/11/27 02:02:27;;;;;;;7.75;4.45;;;;;;;;;;5071542;28;20190;-41
2022/11/27 02:04:54;;;;;;;8.90;5.20;;;;;;;;;;5071695;28;20219;-41
2022/11/27 02:07:20;;;;;;;5.95;4.95;;;;;;;;;;5070368;28;21013;-42
2022/11/27 02:09:46;;;;;;;8.38;4.95;;;;;;;;;;5071556;28;20158;-41
2022/11/27 02:12:12;;;;;;;7.30;5.40;;;;;;;;;;5072091;28;20561;-41
2022/11/27 02:14:38;;;;;;;7.07;4.50;;;;;;;;;;5072165;28;20475;-43
2022/11/27 02:17:30;;;;;;;7.40;4.43;;;;;;;;;;5072156;28;20425;-41
2022/11/27 02:20:05;;;;;;;4.85;4.45;;;;;;;;;;5055993;28;20714;-41
2022/11/27 02:22:49;;;;;;;5.78;5.00;;;;;;;;;;5072027;28;20200;-42
2022/11/27 02:25:34;;;;;;;7.32;4.70;;;;;;;;;;5072110;28;20174;-42
2022/11/27 02:28:12;;;;;;;5.57;3.75;;;;;;;;;;5071966;28;20244;-41
2022/11/27 02:30:43;;;;;;;6.47;3.97;;;;;;;;;;5071834;28;20567;-41
2022/11/27 02:33:10;;;;;;;8.70;5.70;;;;;;;;;;5071735;28;20197;-40
2022/11/27 02:35:40;;;;;;;8.02;4.65;;;;;;;;;;5071905;28;20536;-41
2022/11/27 02:38:13;;;;;;;6.00;4.00;;;;;;;;;;5071987;28;20170;-41
2022/11/27 02:40:57;;;;;;;5.63;3.80;;;;;;;;;;5071385;28;20273;-41
2022/11/27 02:43:26;;;;;;;8.75;4.78;;;;;;;;;;5071980;28;20184;-41
2022/11/27 02:45:53;;;;;;;8.68;5.15;;;;;;;;;;5070381;28;20178;-43
2022/11/27 02:48:20;;;;;;;5.32;4.30;;;;;;;;;;5071800;28;20588;-42
2022/11/27 02:50:48;;;;;;;6.38;4.53;;;;;;;;;;5071600;28;20178;-42
2022/11/27 02:53:17;;;;;;;7.68;4.57;;;;;;;;;;5071529;28;20174;-41
2022/11/27 02:55:44;;;;;;;7.53;5.03;;;;;;;;;;5070242;28;20214;-43
2022/11/27 02:58:13;;;;;;;7.40;4.25;;;;;;;;;;5071522;28;20178;-41
2022/11/27 03:00:40;;;;;;;9.15;4.70;;;;;;;;;;5071489;28;20619;-43
2022/11/27 03:03:08;;;;;;;6.15;4.53;;;;;;;;;;5071312;28;20323;-41
2022/11/27 03:05:36;;;;;;;7.32;4.30;;;;;;;;;;5071388;28;20635;-41
2022/11/27 03:08:02;;;;;;;6.07;4.68;;;;;;;;;;5071526;28;20647;-42
2022/11/27 03:10:33;;;;;;;7.95;5.15;;;;;;;;;;5070051;28;20189;-42
2022/11/27 03:13:00;;;;;;;8.00;5.10;;;;;;;;;;5071243;28;20194;-41
2022/11/27 03:15:29;;;;;;;7.22;4.22;;;;;;;;;;5071568;28;20530;-41
2022/11/27 03:17:57;;;;;;;4.80;4.18;;;;;;;;;;5071447;28;20163;-42
2022/11/27 03:20:26;;;;;;;5.63;4.60;;;;;;;;;;5071084;28;20244;-41
2022/11/27 03:22:55;;;;;;;6.60;4.25;;;;;;;;;;5071347;28;20595;-41
2022/11/27 03:25:21;;;;;;;8.13;5.50;;;;;;;;;;5071427;28;20167;-41
2022/11/27 03:27:56;;;;;;;9.40;6.85;;;;;;;;;;5071311;28;20595;-41
2022/11/27 03:30:22;;;;;;;6.80;3.90;;;;;;;;;;5071213;28;20256;-41
2022/11/27 03:32:48;;;;;;;9.50;5.73;;;;;;;;;;5070834;28;20273;-41
2022/11/27 03:35:17;;;;;;;6.33;4.63;;;;;;;;;;5070006;28;20438;-41
2022/11/27 03:37:42;;;;;;;5.88;4.93;;;;;;;;;;5071248;28;20415;-42
2022/11/27 03:40:09;;;;;;;5.63;4.87;;;;;;;;;;5071078;28;20190;-41
2022/11/27 03:42:38;;;;;;;7.82;5.28;;;;;;;;;;5070839;28;21029;-41
2022/11/27 03:45:14;;;;;;;14.80;5.68;;;;;;;;;;5071120;28;20666;-41
2022/11/27 03:47:40;;;;;;;10.13;5.70;;;;;;;;;;5071290;28;20577;-41
2022/11/27 03:50:24;;;;;;;13.77;5.80;;;;;;;;;;5071034;28;20162;-41
2022/11/27 03:53:16;;;;;;;6.15;4.95;;;;;;;;;;5070931;28;20288;-41
2022/11/27 03:55:45;;;;;;;9.30;5.22;;;;;;;;;;5070926;28;20162;-41
2022/11/27 03:58:22;;;;;;;7.10;5.05;;;;;;;;;;5070990;28;20265;-41
2022/11/27 04:00:49;;;;;;;10.48;5.22;;;;;;;;;;5070518;28;20186;-42
2022/11/27 04:03:20;;;;;;;7.60;5.70;;;;;;;;;;5070918;28;20194;-41
2022/11/27 04:05:46;;;;;;;10.10;6.30;;;;;;;;;;5070870;28;20170;-42
2022/11/27 04:08:12;;;;;;;9.53;4.93;;;;;;;;;;5072345;28;20170;-41
2022/11/27 04:10:38;;;;;;;11.23;6.03;;;;;;;;;;5074214;28;20471;-41
2022/11/27 04:13:04;;;;;;;12.80;5.67;;;;;;;;;;5074307;28;20439;-42
2022/11/27 04:15:30;;;;;;;10.70;6.30;;;;;;;;;;5074357;28;20610;-41
2022/11/27 04:17:56;;;;;;;8.20;5.77;;;;;;;;;;5074493;28;20219;-41
2022/11/27 04:20:22;;;;;;;8.50;5.77;;;;;;;;;;5074087;28;20485;-41
2022/11/27 04:22:48;;;;;;;11.40;6.60;;;;;;;;;;5073908;28;20471;-41
2022/11/27 04:25:14;;;;;;;10.00;5.30;;;;;;;;;;5074390;28;20400;-41
2022/11/27 04:27:40;;;;;;;7.37;5.00;;;;;;;;;;5074303;28;20172;-42
2022/11/27 04:30:07;;;;;;;8.00;5.30;;;;;;;;;;5074354;28;20890;-41
2022/11/27 04:32:32;;;;;;;14.63;6.25;;;;;;;;;;5073941;28;20427;-41
2022/11/27 04:34:58;;;;;;;7.80;5.40;;;;;;;;;;5073936;28;20170;-41
2022/11/27 04:37:24;;;;;;;9.50;5.37;;;;;;;;;;5074043;28;20412;-41
2022/11/27 04:39:50;;;;;;;9.40;5.40;;;;;;;;;;5073918;28;20910;-42
2022/11/27 04:42:16;;;;;;;11.80;5.30;;;;;;;;;;5073659;28;20191;-43
2022/11/27 04:44:42;;;;;;;8.63;6.07;;;;;;;;;;5074052;28;20401;-41
2022/11/27 04:47:08;;;;;;;11.20;5.47;;;;;;;;;;5073971;28;20401;-41
2022/11/27 04:49:34;;;;;;;9.57;5.55;;;;;;;;;;5073936;28;20400;-41
2022/11/27 04:52:00;;;;;;;6.50;4.70;;;;;;;;;;5073364;28;20562;-41
2022/11/27 04:54:27;;;;;;;9.63;6.00;;;;;;;;;;5074194;28;20400;-41
2022/11/27 04:56:53;;;;;;;9.97;4.83;;;;;;;;;;5073662;28;20177;-41
2022/11/27 04:59:19;;;;;;;8.70;6.30;;;;;;;;;;5073801;28;20863;-41
2022/11/27 05:01:44;;;;;;;10.40;5.70;;;;;;;;;;5073170;28;20456;-41
2022/11/27 05:04:10;;;;;;;5.53;5.00;;;;;;;;;;5073706;28;20454;-41
2022/11/27 05:06:36;;;;;;;7.07;5.43;;;;;;;;;;5073447;28;20397;-41
2022/11/27 05:09:02;;;;;;;8.80;5.80;;;;;;;;;;5073808;28;20490;-42
2022/11/27 05:11:29;;;;;;;6.82;5.18;;;;;;;;;;5072898;28;20817;-42
2022/11/27 05:14:14;;;;;;;13.82;5.53;;;;;;;;;;5073583;28;20216;-41
2022/11/27 05:17:00;;;;;;;10.93;6.65;;;;;;;;;;5073431;28;20193;-41
2022/11/27 05:19:27;;;;;;;11.05;5.95;;;;;;;;;;5073428;28;20166;-41
2022/11/27 05:21:53;;;;;;;11.38;6.20;;;;;;;;;;5072737;28;20400;-41
2022/11/27 05:24:21;;;;;;;7.63;5.80;;;;;;;;;;5073398;28;20159;-41
2022/11/27 05:26:47;;;;;;;9.95;6.22;;;;;;;;;;5073083;28;20169;-41
2022/11/27 05:29:13;;;;;;;11.77;5.67;;;;;;;;;;5073212;28;20162;-41
2022/11/27 05:31:39;;;;;;;7.28;4.90;;;;;;;;;;5072555;28;20433;-41
2022/11/27 05:34:06;;;;;;;6.60;4.80;;;;;;;;;;5073169;28;20260;-41
2022/11/27 05:36:32;;;;;;;9.18;5.68;;;;;;;;;;5072875;28;20894;-41
2022/11/27 05:38:59;;;;;;;8.35;5.50;;;;;;;;;;5071773;28;20182;-41
2022/11/27 05:41:24;;;;;;;7.72;5.65;;;;;;;;;;5072332;28;20237;-42
2022/11/27 05:43:50;;;;;;;10.00;5.80;;;;;;;;;;5072805;28;20198;-41
2022/11/27 05:46:18;;;;;;;7.73;5.60;;;;;;;;;;5072740;28;20904;-41
2022/11/27 05:48:44;;;;;;;11.38;6.35;;;;;;;;;;5073102;28;20404;-41
2022/11/27 05:51:10;;;;;;;11.80;5.70;;;;;;;;;;5072379;28;20687;-41
2022/11/27 05:53:36;;;;;;;10.37;6.33;;;;;;;;;;5072764;28;20817;-41
2022/11/27 05:56:03;;;;;;;8.68;5.93;;;;;;;;;;5072520;28;20582;-41
2022/11/27 05:58:29;;;;;;;11.02;6.05;;;;;;;;;;5072691;28;20193;-40
2022/11/27 06:00:55;;;;;;;11.48;6.90;;;;;;;;;;5071955;28;20738;-41
2022/11/27 06:03:21;;;;;;;11.43;5.87;;;;;;;;;;5072572;28;20246;-41
2022/11/27 06:05:47;;;;;;;9.40;6.03;;;;;;;;;;5072496;28;20405;-41
2022/11/27 06:08:13;;;;;;;8.33;6.17;;;;;;;;;;5071531;28;20466;-42
2022/11/27 06:10:39;;;;;;;9.50;5.33;;;;;;;;;;5072016;28;20412;-42
2022/11/27 06:13:05;;;;;;;6.80;5.25;;;;;;;;;;5071699;28;20429;-42
2022/11/27 06:15:31;;;;;;;8.47;6.10;;;;;;;;;;5072181;28;20178;-43
2022/11/27 06:17:57;;;;;;;9.13;5.63;;;;;;;;;;5083212;28;20424;-42
2022/11/27 06:20:23;;;;;;;8.60;6.07;;;;;;;;;;5072974;28;20957;-43
2022/11/27 06:22:50;;;;;;;9.47;6.40;;;;;;;;;;5071656;28;20800;-43
2022/11/27 06:25:16;;;;;;;8.30;5.73;;;;;;;;;;5072020;28;20404;-43
2022/11/27 06:27:42;;;;;;;11.03;5.70;;;;;;;;;;5071749;28;20480;-43
2022/11/27 06:30:09;;;;;;;10.57;6.88;;;;;;;;;;5071537;28;20403;-42
2022/11/27 06:32:35;;;;;;;13.77;6.77;;;;;;;;;;5071495;28;20187;-43
2022/11/27 06:35:02;;;;;;;10.50;6.40;;;;;;;;;;5072130;28;20407;-42
2022/11/27 06:37:28;;;;;;;8.87;5.77;;;;;;;;;;5071837;28;20435;-42
2022/11/27 06:39:54;;;;;;;13.53;6.40;;;;;;;;;;5071657;28;20428;-42
2022/11/27 06:42:20;;;;;;;10.83;6.77;;;;;;;;;;5071210;28;20431;-42
2022/11/27 06:44:46;;;;;;;15.63;7.47;;;;;;;;;;5071818;28;20400;-42
2022/11/27 06:47:12;;;;;;;9.00;5.80;;;;;;;;;;5072843;28;20910;-42
2022/11/27 06:49:38;;;;;;;13.07;6.70;;;;;;;;;;5071603;28;20468;-42
2022/11/27 06:52:04;;;;;;;7.28;6.57;;;;;;;;;;5071511;28;20419;-42
2022/11/27 06:54:30;;;;;;;7.00;5.87;;;;;;;;;;5071585;28;20296;-42
2022/11/27 06:56:57;;;;;;;10.80;7.00;;;;;;;;;;5071475;28;20442;-42
2022/11/27 06:59:24;;;;;;;11.67;7.47;;;;;;;;;;5071510;28;20443;-42
2022/11/27 07:01:50;;;;;;;10.17;5.70;;;;;;;;;;5071124;28;20448;-42
2022/11/27 07:04:16;;;;;;;10.93;6.80;;;;;;;;;;5071571;28;20389;-42
2022/11/27 07:06:43;;;;;;;7.00;5.67;;;;;;;;;;5071585;28;20450;-42
2022/11/27 07:09:09;;;;;;;7.70;6.27;;;;;;;;;;5071357;28;20476;-42
2022/11/27 07:11:35;;;;;;;10.60;6.53;;;;;;;;;;5070797;28;20441;-42
2022/11/27 07:14:03;;;;;;;9.50;5.90;;;;;;;;;;5071633;28;20419;-42
2022/11/27 07:16:30;;;;;;;6.90;6.13;;;;;;;;;;5071519;28;20836;-42
2022/11/27 07:18:58;;;;;;;7.30;5.57;;;;;;;;;;5071324;28;20166;-42
2022/11/27 07:21:24;;;;;;;9.63;5.73;;;;;;;;;;5071012;28;20543;-42
2022/11/27 07:23:50;;;;;;;11.63;6.15;;;;;;;;;;5071271;28;20401;-42
2022/11/27 07:26:18;;;;;;;8.40;5.35;;;;;;;;;;5071328;28;20170;-42
2022/11/27 07:28:44;;;;;;;8.73;5.97;;;;;;;;;;5071502;28;20213;-42
2022/11/27 07:31:11;;;;;;;11.10;6.10;;;;;;;;;;5070824;28;20273;-42
2022/11/27 07:33:37;;;;;;;9.00;5.65;;;;;;;;;;5071343;28;20400;-42
2022/11/27 07:36:11;;;;;;;8.83;6.00;;;;;;;;;;5071284;28;20189;-42
2022/11/27 07:38:37;;;;;;;7.55;5.07;;;;;;;;;;5070990;28;20401;-42
2022/11/27 07:41:03;;;;;;;10.73;6.37;;;;;;;;;;5070723;28;20198;-42
2022/11/27 07:43:30;;;;;;;10.17;7.70;;;;;;;;;;5073276;28;20941;-42
2022/11/27 07:45:56;;;;;;;9.90;5.30;;;;;;;;;;5074974;28;20483;-42
2022/11/27 07:48:22;;;;;;;13.23;5.97;;;;;;;;;;5075389;28;20875;-42
2022/11/27 07:50:48;;;;;;;15.47;5.83;;;;;;;;;;5074534;28;20901;-43
2022/11/27 07:53:14;;;;;;;10.50;6.43;;;;;;;;;;5074654;28;20514;-42
2022/11/27 07:55:40;;;;;;;11.70;6.30;;;;;;;;;;5074837;28;20421;-42
2022/11/27 07:58:11;;;;;;;13.80;5.43;;;;;;;;;;5074788;28;20405;-42
2022/11/27 08:00:37;;;;;;;9.53;5.80;;;;;;;;;;5074429;28;20850;-42
2022/11/27 08:03:03;;;;;;;8.37;5.20;;;;;;;;;;5074492;28;20440;-42
2022/11/27 08:05:29;;;;;;;6.23;5.20;;;;;;;;;;5073358;28;20497;-42
2022/11/27 08:07:55;;;;;;;8.30;5.73;;;;;;;;;;5074456;28;20402;-42
2022/11/27 08:10:21;;;;;;;7.60;5.00;;;;;;;;;;5074330;28;20826;-42
2022/11/27 08:12:47;;;;;;;8.70;5.30;;;;;;;;;;5074159;28;20486;-43
2022/11/27 08:15:13;;;;;;;13.93;5.47;;;;;;;;;;5074553;28;20472;-43
2022/11/27 08:17:39;;;;;;;5.50;4.97;;;;;;;;;;5074392;28;20414;-42
2022/11/27 08:20:05;;;;;;;5.83;4.33;;;;;;;;;;5074046;28;20906;-42
2022/11/27 08:22:31;;;;;;;15.70;5.73;;;;;;;;;;5074004;28;20675;-42
2022/11/27 08:24:58;;;;;;;11.93;5.80;;;;;;;;;;5074235;28;21011;-42
2022/11/27 08:27:23;;;;;;;7.60;4.97;;;;;;;;;;5074256;28;20488;-42
2022/11/27 08:29:49;;;;;;;7.13;5.13;;;;;;;;;;5074189;28;20460;-42
2022/11/27 08:32:15;;;;;;;11.23;4.60;;;;;;;;;;5073778;28;20464;-42
2022/11/27 08:34:41;;;;;;;7.83;4.80;;;;;;;;;;5074708;28;20413;-42
2022/11/27 08:37:07;;;;;;;10.87;4.67;;;;;;;;;;5073306;28;20406;-42
2022/11/27 08:39:34;;;;;;;4.83;4.30;;;;;;;;;;5070280;28;20912;-42
2022/11/27 08:42:00;;;;;;;7.23;5.17;;;;;;;;;;5061745;28;20545;-43
2022/11/27 08:44:26;;;;;;;6.23;4.93;;;;;;;;;;5073682;28;20403;-42
2022/11/27 08:46:52;;;;;;;6.50;4.03;;;;;;;;;;5073273;28;20906;-42
2022/11/27 08:49:18;;;;;;;15.03;4.87;;;;;;;;;;5072252;28;20394;-42
2022/11/27 08:51:44;;;;;;;7.70;4.87;;;;;;;;;;5072987;28;20429;-42
2022/11/27 08:54:10;;;;;;;6.47;4.50;;;;;;;;;;5072966;28;20407;-43
2022/11/27 08:56:36;;;;;;;5.60;4.03;;;;;;;;;;5072589;28;20404;-43
2022/11/27 08:59:02;;;;;;;4.73;4.23;;;;;;;;;;5072625;28;20411;-42
2022/11/27 09:01:29;;;;;;;5.80;4.60;;;;;;;;;;5072893;28;20525;-42
2022/11/27 09:03:55;;;;;;;7.37;4.67;;;;;;;;;;5073325;28;20413;-42
2022/11/27 09:06:29;;;;;;;6.30;4.33;;;;;;;;;;5073693;28;20770;-42
2022/11/27 09:08:59;;;;;;;6.30;5.00;;;;;;;;;;5072113;28;20844;-42
2022/11/27 09:11:26;;;;;;;8.30;4.20;;;;;;;;;;5072643;28;20446;-42
2022/11/27 09:13:52;;;;;;;7.10;3.87;;;;;;;;;;5073405;28;20472;-42
2022/11/27 09:16:21;;;;;;;5.30;4.33;;;;;;;;;;5073145;28;20884;-43
2022/11/27 09:18:49;;;;;;;6.73;4.20;;;;;;;;;;5073116;28;20469;-42
2022/11/27 09:21:15;;;;;;;13.33;5.03;;;;;;;;;;5072464;28;20486;-42
2022/11/27 09:23:42;;;;;;;8.40;4.73;;;;;;;;;;5073255;28;20884;-43
2022/11/27 09:26:10;;;;;;;10.40;4.80;;;;;;;;;;5072994;28;20582;-42
2022/11/27 09:28:37;;;;;;;6.43;4.50;;;;;;;;;;5073060;28;20400;-42
2022/11/27 09:31:07;;;;;;;7.43;5.13;;;;;;;;;;5072240;28;20411;-42
2022/11/27 09:33:36;;;;;;;5.07;4.40;;;;;;;;;;5072983;28;20415;-43
2022/11/27 09:36:14;;;;;;;8.37;4.73;;;;;;;;;;5072027;28;20418;-42
2022/11/27 09:38:41;;;;;;;5.57;4.50;;;;;;;;;;5071558;28;20397;-43
2022/11/27 09:41:13;;;;;;;6.43;4.70;;;;;;;;;;5071296;28;20440;-43
2022/11/27 09:43:45;;;;;;;6.60;4.27;;;;;;;;;;5071855;28;20710;-43
2022/11/27 09:46:16;;;;;;;4.60;4.20;;;;;;;;;;5070438;28;20408;-43
2022/11/27 09:48:47;;;;;;;4.90;4.40;;;;;;;;;;5072512;28;20765;-43
2022/11/27 09:51:19;;;;;;;8.03;4.10;;;;;;;;;;5072141;28;20420;-43
2022/11/27 09:53:47;;;;;;;7.50;4.80;;;;;;;;;;5072505;28;20434;-43
2022/11/27 09:56:15;;;;;;;6.50;4.73;;;;;;;;;;5072262;28;20413;-43
2022/11/27 09:58:50;;;;;;;6.47;4.47;;;;;;;;;;5072537;28;20407;-43
2022/11/27 10:01:17;;;;;;;7.50;4.70;;;;;;;;;;5071893;28;20454;-43
2022/11/27 10:03:45;;;;;;;6.07;4.47;;;;;;;;;;5072340;28;20414;-43
2022/11/27 10:06:25;;;;;;;7.27;5.00;;;;;;;;;;5071941;28;20405;-43
2022/11/27 10:08:50;;;;;;;10.30;5.40;;;;;;;;;;5072122;28;20477;-43
2022/11/27 10:11:19;;;;;;;7.00;4.70;;;;;;;;;;5071697;28;20483;-43
2022/11/27 10:13:54;;;;;;;5.77;4.20;;;;;;;;;;5072130;28;20841;-43
2022/11/27 10:16:35;;;;;;;6.23;4.10;;;;;;;;;;5072055;28;20400;-43
2022/11/27 10:19:17;;;;;;;7.17;4.90;;;;;;;;;;5071860;28;20400;-43
2022/11/27 10:21:54;;;;;;;5.57;4.60;;;;;;;;;;5071335;28;20520;-43
2022/11/27 10:24:37;;;;;;;7.93;3.90;;;;;;;;;;5071904;28;20801;-44
2022/11/27 10:27:12;;;;;;;4.60;3.83;;;;;;;;;;5071908;28;20393;-43
2022/11/27 10:29:43;;;;;;;4.83;3.60;;;;;;;;;;5072065;28;20415;-43
2022/11/27 10:32:18;;;;;;;7.93;4.27;;;;;;;;;;5071480;28;20950;-44
2022/11/27 10:34:47;;;;;;;5.73;4.03;;;;;;;;;;5072063;28;20772;-43
2022/11/27 10:37:16;;;;;;;4.20;3.80;;;;;;;;;;5071774;28;20408;-43
2022/11/27 10:40:05;;;;;;;6.43;3.80;;;;;;;;;;5072145;28;20550;-43
2022/11/27 10:42:44;;;;;;;4.97;4.50;;;;;;;;;;5059293;28;20459;-43
2022/11/27 10:45:24;;;;;;;7.93;4.67;;;;;;;;;;5071935;28;20453;-43
2022/11/27 10:47:50;;;;;;;3.90;3.50;;;;;;;;;;5071863;28;20385;-43
2022/11/27 10:50:17;;;;;;;7.70;3.80;;;;;;;;;;5071577;28;20408;-43
2022/11/27 10:52:49;;;;;;;13.43;7.90;;;;;;;;;;5068427;28;20478;-43
2022/11/27 10:55:21;;;;;;;4.27;3.87;;;;;;;;;;5076019;28;20454;-43
2022/11/27 10:57:47;;;;;;;4.63;4.20;;;;;;;;;;5073609;28;20473;-43
2022/11/27 11:00:21;;;;;;;8.47;4.37;;;;;;;;;;5077326;28;20902;-43
2022/11/27 11:05:55;;;;;;;4.10;3.63;;;;;;;;;;5061959;28;20411;-43
2022/11/27 11:08:23;;;;;;;6.10;3.63;;;;;;;;;;5050895;28;20405;-43
2022/11/27 11:10:53;;;;;;;3.37;2.90;;;;;;;;;;5050547;28;20457;-43
2022/11/27 11:13:21;;;;;;;5.47;3.80;;;;;;;;;;5050020;28;20467;-43
2022/11/27 11:15:47;;;;;;;5.70;3.83;;;;;;;;;;5051447;28;20777;-43
2022/11/27 11:18:17;;;;;;;4.00;3.60;;;;;;;;;;5054320;28;20408;-43
2022/11/27 11:20:47;;;;;;;4.40;3.93;;;;;;;;;;5055053;28;20490;-43
2022/11/27 11:23:20;;;;;;;3.50;3.20;;;;;;;;;;5054799;28;20425;-43
2022/11/27 11:25:54;;;;;;;3.00;2.70;;;;;;;;;;5054933;28;20480;-43
2022/11/27 11:28:21;;;;;;;5.90;3.40;;;;;;;;;;5055361;28;20397;-43
2022/11/27 11:30:55;;;;;;;4.47;3.20;;;;;;;;;;5055300;28;20752;-43
2022/11/27 11:33:21;;;;;;;4.80;3.27;;;;;;;;;;5054726;28;20766;-43
2022/11/27 11:35:51;;;;;;;5.93;3.57;;;;;;;;;;5055167;28;20401;-43
2022/11/27 11:38:18;;;;;;;4.80;3.17;;;;;;;;;;5055018;28;20794;-43
2022/11/27 11:40:56;;;;;;;14.67;8.30;;;;;;;;;;5054513;28;20472;-43
2022/11/27 11:43:26;;;;;;;4.33;3.93;;;;;;;;;;5054782;28;20555;-43
2022/11/27 11:45:52;;;;;;;3.80;3.37;;;;;;;;;;5054971;28;20921;-43
2022/11/27 11:48:26;;;;;;;3.60;3.30;;;;;;;;;;5054591;28;20474;-43
2022/11/27 11:51:01;;;;;;;4.73;2.73;;;;;;;;;;5054608;28;20470;-43
2022/11/27 11:53:34;;;;;;;3.33;2.97;;;;;;;;;;5054914;28;20784;-43
2022/11/27 11:56:00;;;;;;;6.20;3.13;;;;;;;;;;5054999;28;20405;-43
2022/11/27 11:58:45;;;;;;;7.03;3.17;;;;;;;;;;5054643;28;20405;-42
2022/11/27 12:01:21;;;;;;;3.13;2.93;;;;;;;;;;5053863;28;21092;-43
2022/11/27 12:03:53;;;;;;;3.20;2.90;;;;;;;;;;5054514;28;20409;-43
2022/11/27 12:06:22;;;;;;;4.23;3.83;;;;;;;;;;5052879;28;20503;-43
2022/11/27 12:09:02;;;;;;;3.03;2.73;;;;;;;;;;5054164;28;20413;-43
2022/11/27 12:11:31;;;;;;;3.00;2.70;;;;;;;;;;5059212;28;20436;-43
2022/11/27 12:14:03;;;;;;;4.90;3.33;;;;;;;;;;5073734;28;20404;-43
2022/11/27 12:16:35;;;;;;;3.93;2.83;;;;;;;;;;5074196;28;20882;-43
2022/11/27 12:19:04;;;;;;;3.27;2.50;;;;;;;;;;5074054;28;20414;-43
2022/11/27 12:21:40;;;;;;;3.40;3.10;;;;;;;;;;5072264;28;20456;-43
2022/11/27 12:24:24;;;;;;;6.10;3.00;;;;;;;;;;5070726;28;20810;-43
2022/11/27 12:26:50;;;;;;;3.87;3.10;;;;;;;;;;5072266;28;20917;-43
2022/11/27 12:29:17;;;;;;;2.90;2.70;;;;;;;;;;5071256;28;20400;-43
2022/11/27 12:31:50;;;;;;;3.27;2.80;;;;;;;;;;5071328;28;20438;-43
2022/11/27 12:34:26;;;;;;;3.73;3.10;;;;;;;;;;5072628;28;20443;-43
2022/11/27 12:36:53;;;;;;;6.03;3.17;;;;;;;;;;5072355;28;20395;-43
2022/11/27 12:39:38;;;;;;;3.20;2.90;;;;;;;;;;5072563;28;20411;-43
2022/11/27 12:42:23;;;;;;;4.57;2.60;;;;;;;;;;5072830;28;20520;-43
2022/11/27 12:44:55;;;;;;;4.33;2.97;;;;;;;;;;5074010;28;20415;-43
2022/11/27 12:47:23;;;;;;;4.50;3.27;;;;;;;;;;5073556;28;20400;-43
2022/11/27 12:49:56;;;;;;;2.83;2.63;;;;;;;;;;5074130;28;20811;-42
2022/11/27 12:52:25;;;;;;;4.17;3.40;;;;;;;;;;5073213;28;20425;-42
2022/11/27 12:54:54;;;;;;;5.10;3.13;;;;;;;;;;5073071;28;20881;-43
2022/11/27 12:57:24;;;;;;;7.20;3.30;;;;;;;;;;5073581;28;20447;-42
2022/11/27 12:59:53;;;;;;;4.03;3.03;;;;;;;;;;5073514;28;20432;-43
2022/11/27 13:02:19;;;;;;;4.27;2.87;;;;;;;;;;5072587;28;20452;-43
2022/11/27 13:04:56;;;;;;;3.70;2.90;;;;;;;;;;5073383;28;20878;-42
2022/11/27 13:07:24;;;;;;;3.40;2.80;;;;;;;;;;5073325;28;20897;-43
2022/11/27 13:09:53;;;;;;;3.00;2.80;;;;;;;;;;5073243;28;20400;-43
2022/11/27 13:12:42;;;;;;;2.40;2.20;;;;;;;;;;5073026;28;20493;-43
2022/11/27 13:15:24;;;;;;;3.10;2.63;;;;;;;;;;5073141;28;20908;-43
2022/11/27 13:17:55;;;;;;;2.97;2.77;;;;;;;;;;5071771;28;20502;-43
2022/11/27 13:20:22;;;;;;;3.83;2.80;;;;;;;;;;5069439;28;20797;-42
2022/11/27 13:22:49;;;;;;;2.50;2.30;;;;;;;;;;5061417;28;20468;-42
2022/11/27 13:25:15;;;;;;;4.17;2.47;;;;;;;;;;5052724;28;20886;-42
2022/11/27 13:27:44;;;;;;;5.63;2.90;;;;;;;;;;5052977;28;20401;-42
2022/11/27 13:30:37;;;;;;;2.63;2.43;;;;;;;;;;5052851;28;20432;-43
2022/11/27 13:33:05;;;;;;;5.63;3.00;;;;;;;;;;5050747;28;21011;-43
2022/11/27 13:35:35;;;;;;;4.27;2.90;;;;;;;;;;5052833;28;20405;-43
2022/11/27 13:38:21;;;;;;;4.23;2.70;;;;;;;;;;5052559;28;20398;-43
2022/11/27 13:40:50;;;;;;;4.90;3.23;;;;;;;;;;5051374;28;20495;-45
2022/11/27 13:43:22;;;;;;;4.17;2.37;;;;;;;;;;5052710;28;20405;-44
2022/11/27 13:45:49;;;;;;;3.40;3.03;;;;;;;;;;5052225;28;20448;-43
2022/11/27 13:48:34;;;;;;;2.77;2.57;;;;;;;;;;5052686;28;20405;-43
2022/11/27 13:51:00;;;;;;;4.47;3.13;;;;;;;;;;5052194;28;20722;-43
2022/11/27 13:53:30;;;;;;;3.10;2.70;;;;;;;;;;5052272;28;20836;-43
2022/11/27 13:55:57;;;;;;;3.53;2.80;;;;;;;;;;5052666;28;20412;-43
2022/11/27 13:58:42;;;;;;;3.87;2.67;;;;;;;;;;5058579;28;20901;-44
2022/11/27 14:01:18;;;;;;;3.17;2.70;;;;;;;;;;5071048;28;20444;-43
2022/11/27 14:03:45;;;;;;;3.40;2.60;;;;;;;;;;5072670;28;20438;-43
2022/11/27 14:06:15;;;;;;;3.40;3.10;;;;;;;;;;5072188;28;20400;-43
2022/11/27 14:08:48;;;;;;;3.10;2.90;;;;;;;;;;5071980;28;20812;-43
2022/11/27 14:11:14;;;;;;;4.00;3.00;;;;;;;;;;5071747;28;20530;-42
2022/11/27 14:13:40;;;;;;;3.30;2.90;;;;;;;;;;5071845;28;20489;-42
2022/11/27 14:16:21;;;;;;;2.97;2.77;;;;;;;;;;5071767;28;20504;-43
2022/11/27 14:18:51;;;;;;;2.93;2.40;;;;;;;;;;5071945;28;20484;-42
2022/11/27 14:21:25;;;;;;;2.93;2.60;;;;;;;;;;5071730;28;20447;-43
2022/11/27 14:23:52;;;;;;;2.60;2.40;;;;;;;;;;5071622;28;20442;-43
2022/11/27 14:26:22;;;;;;;3.13;2.80;;;;;;;;;;5071577;28;20401;-43
2022/11/27 14:28:49;;;;;;;2.80;2.60;;;;;;;;;;5071909;28;20408;-43
2022/11/27 14:31:24;;;;;;;3.43;2.73;;;;;;;;;;5070940;28;20917;-43
2022/11/27 14:33:50;;;;;;;3.47;2.37;;;;;;;;;;5071807;28;20941;-43
2022/11/27 14:36:30;;;;;;;4.17;3.73;;;;;;;;;;5071607;28;20488;-43
2022/11/27 14:38:57;;;;;;;3.80;2.70;;;;;;;;;;5071412;28;20933;-43
2022/11/27 14:41:23;;;;;;;2.67;2.47;;;;;;;;;;5070897;28;20452;-43
2022/11/27 14:44:03;;;;;;;2.70;2.50;;;;;;;;;;5071679;28;20417;-43
2022/11/27 14:46:30;;;;;;;2.50;2.30;;;;;;;;;;5071094;28;20458;-43
2022/11/27 14:48:56;;;;;;;4.27;2.70;;;;;;;;;;5071437;28;20401;-43
2022/11/27 14:51:24;;;;;;;3.97;2.77;;;;;;;;;;5071049;28;20914;-43
2022/11/27 14:53:51;;;;;;;4.53;3.10;;;;;;;;;;5071227;28;20786;-43